PWSweather.com
Personal Weather Stations
Station Observations
SELSTON
Bracken House, Selston NottinghamGB NG16 6AN

Bracken HouseSelston NottinghamGB NG16 6AN

Lat: 53.070642, Lon: -1.2933

Elevation: 426

Station Type: Davis Vantage Pro 2

http://www.selstonweather.info

Latest ConditionsUpdated 10:10:57 PM GMT Saturday, Feb 23, 2019
Currently Today's Max Today's Min Today's Average
Temperature 49.4°F9.7°C 58.2°F14.6°C 40.9°F4.9°C 48.7°F9.3°C
Dew Point 46.6°F8.1°C 49.8°F9.9°C 38.5°F3.6°C 44.8°F7.1°C
Winds Calm Calm 11.0 mph -17.7 kmh - - 2.8 mph 4.5 kmh
Wind Gusts -- 13.0 mph20.9 kmh - -
Humidity 90% 95% 72% 87%
Pressure 30.49 in1032.5 mb 30.49 in1032.5 mb 30.43 in1030.5 mb -
Hour Temp Dew Point Humidity Winds Wind Gusts Pressure Precip Precip Rate Daily Precip Total
10:10 PM 49.4°F9.7°C 46.6°F8.1°C 90% Calm Calm -- 30.49 in1032.5 mb 0.00 in0.0 mm 0.00 in0.0 mm 0.00 in0.0 mm
10:05 PM 49.4°F9.7°C 46.3°F7.9°C 89% Calm Calm -- 30.49 in1032.5 mb 0.00 in0.0 mm 0.00 in0.0 mm 0.00 in0.0 mm
10:00 PM 49.5°F9.7°C 46.4°F8.0°C 89% Calm Calm -- 30.49 in1032.5 mb 0.00 in0.0 mm 0.00 in0.0 mm 0.00 in0.0 mm
09:55 PM 49.7°F9.8°C 46.6°F8.1°C 89% Calm Calm -- 30.49 in1032.5 mb 0.00 in0.0 mm 0.00 in0.0 mm 0.00 in0.0 mm
09:50 PM 49.8°F9.9°C 46.7°F8.2°C 89% Calm Calm -- 30.49 in1032.5 mb 0.00 in0.0 mm 0.00 in0.0 mm 0.00 in0.0 mm
09:45 PM 49.9°F9.9°C 46.5°F8.1°C 88% Calm Calm -- 30.49 in1032.5 mb 0.00 in0.0 mm 0.00 in0.0 mm 0.00 in0.0 mm
09:40 PM 50.3°F10.2°C 46.9°F8.3°C 88% Calm Calm -- 30.49 in1032.5 mb 0.00 in0.0 mm 0.00 in0.0 mm 0.00 in0.0 mm
09:35 PM 50.4°F10.2°C 47.0°F8.3°C 88% Calm Calm -- 30.49 in1032.5 mb 0.00 in0.0 mm 0.00 in0.0 mm 0.00 in0.0 mm
09:30 PM 50.5°F10.3°C 47.1°F8.4°C 88% Calm Calm -- 30.49 in1032.5 mb 0.00 in0.0 mm 0.00 in0.0 mm 0.00 in0.0 mm
09:25 PM 50.6°F10.3°C 47.5°F8.6°C 89% Calm Calm -- 30.49 in1032.5 mb 0.00 in0.0 mm 0.00 in0.0 mm 0.00 in0.0 mm
09:20 PM 50.6°F10.3°C 47.5°F8.6°C 89% Calm Calm -- 30.49 in1032.5 mb 0.00 in0.0 mm 0.00 in0.0 mm 0.00 in0.0 mm
09:15 PM 50.6°F10.3°C 47.5°F8.6°C 89% Calm Calm -- 30.49 in1032.5 mb 0.00 in0.0 mm 0.00 in0.0 mm 0.00 in0.0 mm
09:10 PM 50.6°F10.3°C 47.5°F8.6°C 89% Calm Calm -- 30.49 in1032.5 mb 0.00 in0.0 mm 0.00 in0.0 mm 0.00 in0.0 mm
09:05 PM 50.6°F10.3°C 47.5°F8.6°C 89% Calm Calm -- 30.48 in1032.2 mb 0.00 in0.0 mm 0.00 in0.0 mm 0.00 in0.0 mm
09:00 PM 50.6°F10.3°C 47.5°F8.6°C 89% Calm Calm -- 30.48 in1032.2 mb 0.00 in0.0 mm 0.00 in0.0 mm 0.00 in0.0 mm
08:55 PM 50.6°F10.3°C 47.5°F8.6°C 89% Calm Calm -- 30.48 in1032.2 mb 0.00 in0.0 mm 0.00 in0.0 mm 0.00 in0.0 mm
08:50 PM 50.6°F10.3°C 47.5°F8.6°C 89% Calm Calm -- 30.48 in1032.2 mb 0.00 in0.0 mm 0.00 in0.0 mm 0.00 in0.0 mm
08:45 PM 50.4°F10.2°C 47.3°F8.5°C 89% Calm Calm -- 30.48 in1032.2 mb 0.00 in0.0 mm 0.00 in0.0 mm 0.00 in0.0 mm
08:40 PM 50.3°F10.2°C 47.2°F8.4°C 89% Calm Calm -- 30.48 in1032.2 mb 0.00 in0.0 mm 0.00 in0.0 mm 0.00 in0.0 mm
08:35 PM 50.2°F10.1°C 47.1°F8.4°C 89% Calm Calm -- 30.48 in1032.2 mb 0.00 in0.0 mm 0.00 in0.0 mm 0.00 in0.0 mm
08:30 PM 50.1°F10.1°C 47.0°F8.3°C 89% Calm Calm -- 30.48 in1032.2 mb 0.00 in0.0 mm 0.00 in0.0 mm 0.00 in0.0 mm
08:25 PM 50.1°F10.1°C 46.7°F8.2°C 88% Calm Calm -- 30.48 in1032.2 mb 0.00 in0.0 mm 0.00 in0.0 mm 0.00 in0.0 mm
08:20 PM 50.1°F10.1°C 46.7°F8.2°C 88% Calm Calm -- 30.48 in1032.2 mb 0.00 in0.0 mm 0.00 in0.0 mm 0.00 in0.0 mm
08:15 PM 50.1°F10.1°C 46.7°F8.2°C 88% Calm Calm -- 30.48 in1032.2 mb 0.00 in0.0 mm 0.00 in0.0 mm 0.00 in0.0 mm
08:10 PM 50.1°F10.1°C 46.7°F8.2°C 88% Calm Calm -- 30.49 in1032.5 mb 0.00 in0.0 mm 0.00 in0.0 mm 0.00 in0.0 mm
08:05 PM 50.1°F10.1°C 46.7°F8.2°C 88% Calm Calm -- 30.49 in1032.5 mb 0.00 in0.0 mm 0.00 in0.0 mm 0.00 in0.0 mm
08:00 PM 50.2°F10.1°C 46.5°F8.1°C 87% Calm Calm -- 30.49 in1032.5 mb 0.00 in0.0 mm 0.00 in0.0 mm 0.00 in0.0 mm
07:55 PM 50.3°F10.2°C 46.6°F8.1°C 87% Calm Calm -- 30.49 in1032.5 mb 0.00 in0.0 mm 0.00 in0.0 mm 0.00 in0.0 mm
07:50 PM 50.5°F10.3°C 46.8°F8.2°C 87% Calm Calm -- 30.49 in1032.5 mb 0.00 in0.0 mm 0.00 in0.0 mm 0.00 in0.0 mm
07:45 PM 50.7°F10.4°C 47.0°F8.3°C 87% Calm Calm -- 30.49 in1032.5 mb 0.00 in0.0 mm 0.00 in0.0 mm 0.00 in0.0 mm
07:40 PM 50.6°F10.3°C 46.9°F8.3°C 87% Calm Calm -- 30.49 in1032.5 mb 0.00 in0.0 mm 0.00 in0.0 mm 0.00 in0.0 mm
07:35 PM 50.5°F10.3°C 46.8°F8.2°C 87% Calm Calm -- 30.48 in1032.2 mb 0.00 in0.0 mm 0.00 in0.0 mm 0.00 in0.0 mm
07:30 PM 50.7°F10.4°C 46.7°F8.2°C 86% Calm Calm -- 30.48 in1032.2 mb 0.00 in0.0 mm 0.00 in0.0 mm 0.00 in0.0 mm
07:25 PM 50.8°F10.4°C 47.1°F8.4°C 87% Calm Calm -- 30.48 in1032.2 mb 0.00 in0.0 mm 0.00 in0.0 mm 0.00 in0.0 mm
07:20 PM 50.7°F10.4°C 46.7°F8.2°C 86% Calm Calm -- 30.48 in1032.2 mb 0.00 in0.0 mm 0.00 in0.0 mm 0.00 in0.0 mm
07:15 PM 50.8°F10.4°C 46.8°F8.2°C 86% Calm Calm -- 30.48 in1032.2 mb 0.00 in0.0 mm 0.00 in0.0 mm 0.00 in0.0 mm
07:10 PM 51.0°F10.6°C 46.7°F8.2°C 85% Calm Calm -- 30.48 in1032.2 mb 0.00 in0.0 mm 0.00 in0.0 mm 0.00 in0.0 mm
07:05 PM 51.2°F10.7°C 47.2°F8.4°C 86% Calm Calm -- 30.48 in1032.2 mb 0.00 in0.0 mm 0.00 in0.0 mm 0.00 in0.0 mm
07:00 PM 51.3°F10.7°C 46.9°F8.3°C 85% Calm Calm -- 30.47 in1031.8 mb 0.00 in0.0 mm 0.00 in0.0 mm 0.00 in0.0 mm
06:55 PM 51.4°F10.8°C 47.0°F8.3°C 85% Calm Calm -- 30.47 in1031.8 mb 0.00 in0.0 mm 0.00 in0.0 mm 0.00 in0.0 mm
06:50 PM 51.6°F10.9°C 47.2°F8.4°C 85% Calm Calm -- 30.47 in1031.8 mb 0.00 in0.0 mm 0.00 in0.0 mm 0.00 in0.0 mm
06:45 PM 51.7°F10.9°C 47.3°F8.5°C 85% Calm Calm -- 30.47 in1031.8 mb 0.00 in0.0 mm 0.00 in0.0 mm 0.00 in0.0 mm
06:40 PM 51.8°F11.0°C 47.4°F8.6°C 85% Calm Calm 2.0 mph3.2 kmh 30.46 in1031.5 mb 0.00 in0.0 mm 0.00 in0.0 mm 0.00 in0.0 mm
06:35 PM 51.8°F11.0°C 47.1°F8.4°C 84% Calm Calm -- 30.46 in1031.5 mb 0.00 in0.0 mm 0.00 in0.0 mm 0.00 in0.0 mm
06:30 PM 52.0°F11.1°C 47.3°F8.5°C 84% Calm Calm -- 30.46 in1031.5 mb 0.00 in0.0 mm 0.00 in0.0 mm 0.00 in0.0 mm
06:25 PM 52.2°F11.2°C 47.5°F8.6°C 84% Calm Calm -- 30.46 in1031.5 mb 0.00 in0.0 mm 0.00 in0.0 mm 0.00 in0.0 mm
06:20 PM 52.3°F11.3°C 47.6°F8.7°C 84% Calm Calm -- 30.46 in1031.5 mb 0.00 in0.0 mm 0.00 in0.0 mm 0.00 in0.0 mm
06:15 PM 52.3°F11.3°C 47.6°F8.7°C 84% Calm Calm 4.0 mph6.4 kmh 30.46 in1031.5 mb 0.00 in0.0 mm 0.00 in0.0 mm 0.00 in0.0 mm
06:10 PM 52.3°F11.3°C 47.6°F8.7°C 84% Calm Calm -- 30.46 in1031.5 mb 0.00 in0.0 mm 0.00 in0.0 mm 0.00 in0.0 mm
06:05 PM 52.3°F11.3°C 47.6°F8.7°C 84% Calm Calm -- 30.46 in1031.5 mb 0.00 in0.0 mm 0.00 in0.0 mm 0.00 in0.0 mm
06:00 PM 52.3°F11.3°C 47.3°F8.5°C 83% Calm Calm 4.0 mph6.4 kmh 30.46 in1031.5 mb 0.00 in0.0 mm 0.00 in0.0 mm 0.00 in0.0 mm
05:55 PM 52.4°F11.3°C 47.1°F8.4°C 82% Calm Calm -- 30.46 in1031.5 mb 0.00 in0.0 mm 0.00 in0.0 mm 0.00 in0.0 mm
05:50 PM 52.6°F11.4°C 47.3°F8.5°C 82% Calm Calm -- 30.46 in1031.5 mb 0.00 in0.0 mm 0.00 in0.0 mm 0.00 in0.0 mm
05:45 PM 52.8°F11.6°C 47.5°F8.6°C 82% Calm Calm -- 30.46 in1031.5 mb 0.00 in0.0 mm 0.00 in0.0 mm 0.00 in0.0 mm
05:40 PM 53.0°F11.7°C 47.3°F8.5°C 81% Calm Calm -- 30.45 in1031.2 mb 0.00 in0.0 mm 0.00 in0.0 mm 0.00 in0.0 mm
05:35 PM 53.2°F11.8°C 47.5°F8.6°C 81% Calm Calm -- 30.45 in1031.2 mb 0.00 in0.0 mm 0.00 in0.0 mm 0.00 in0.0 mm
05:30 PM 53.4°F11.9°C 47.4°F8.6°C 80% Calm Calm -- 30.45 in1031.2 mb 0.00 in0.0 mm 0.00 in0.0 mm 0.00 in0.0 mm
05:25 PM 53.7°F12.1°C 47.3°F8.5°C 79% Calm Calm -- 30.45 in1031.2 mb 0.00 in0.0 mm 0.00 in0.0 mm 0.00 in0.0 mm
05:20 PM 54.0°F12.2°C 47.6°F8.7°C 79% Calm Calm -- 30.45 in1031.2 mb 0.00 in0.0 mm 0.00 in0.0 mm 0.00 in0.0 mm
05:15 PM 54.2°F12.3°C 47.8°F8.8°C 79% Calm Calm -- 30.45 in1031.2 mb 0.00 in0.0 mm 0.00 in0.0 mm 0.00 in0.0 mm
05:10 PM 54.5°F12.5°C 48.1°F8.9°C 79% Calm Calm -- 30.45 in1031.2 mb 0.00 in0.0 mm 0.00 in0.0 mm 0.00 in0.0 mm
05:05 PM 54.6°F12.6°C 48.2°F9.0°C 79% Calm Calm -- 30.45 in1031.2 mb 0.00 in0.0 mm 0.00 in0.0 mm 0.00 in0.0 mm
05:00 PM 54.9°F12.7°C 48.2°F9.0°C 78% Calm Calm -- 30.45 in1031.2 mb 0.00 in0.0 mm 0.00 in0.0 mm 0.00 in0.0 mm
04:55 PM 55.2°F12.9°C 48.5°F9.2°C 78% Calm Calm -- 30.45 in1031.2 mb 0.00 in0.0 mm 0.00 in0.0 mm 0.00 in0.0 mm
04:50 PM 55.4°F13.0°C 48.3°F9.1°C 77% Calm Calm -- 30.45 in1031.2 mb 0.00 in0.0 mm 0.00 in0.0 mm 0.00 in0.0 mm
04:45 PM 55.7°F13.2°C 48.6°F9.2°C 77% 1.0 mph S1.6 kmh S 3.0 mph4.8 kmh 30.45 in1031.2 mb 0.00 in0.0 mm 0.00 in0.0 mm 0.00 in0.0 mm
04:40 PM 56.0°F13.3°C 48.5°F9.2°C 76% Calm Calm -- 30.45 in1031.2 mb 0.00 in0.0 mm 0.00 in0.0 mm 0.00 in0.0 mm
04:35 PM 56.3°F13.5°C 48.8°F9.3°C 76% 2.0 mph S3.2 kmh S 8.0 mph12.9 kmh 30.45 in1031.2 mb 0.00 in0.0 mm 0.00 in0.0 mm 0.00 in0.0 mm
04:30 PM 56.6°F13.7°C 48.8°F9.3°C 75% 2.0 mph S3.2 kmh S 5.0 mph8.0 kmh 30.45 in1031.2 mb 0.00 in0.0 mm 0.00 in0.0 mm 0.00 in0.0 mm
04:25 PM 56.9°F13.8°C 49.1°F9.5°C 75% 4.0 mph S6.4 kmh S 5.0 mph8.0 kmh 30.45 in1031.2 mb 0.00 in0.0 mm 0.00 in0.0 mm 0.00 in0.0 mm
04:20 PM 57.1°F13.9°C 49.2°F9.6°C 75% 1.0 mph S1.6 kmh S 2.0 mph3.2 kmh 30.44 in1030.8 mb 0.00 in0.0 mm 0.00 in0.0 mm 0.00 in0.0 mm
04:15 PM 57.2°F14.0°C 49.0°F9.4°C 74% 4.0 mph S6.4 kmh S 7.0 mph11.3 kmh 30.45 in1031.2 mb 0.00 in0.0 mm 0.00 in0.0 mm 0.00 in0.0 mm
04:10 PM 57.3°F14.1°C 49.1°F9.5°C 74% 2.0 mph S3.2 kmh S 8.0 mph12.9 kmh 30.44 in1030.8 mb 0.00 in0.0 mm 0.00 in0.0 mm 0.00 in0.0 mm
04:05 PM 57.2°F14.0°C 49.0°F9.4°C 74% Calm Calm 8.0 mph12.9 kmh 30.44 in1030.8 mb 0.00 in0.0 mm 0.00 in0.0 mm 0.00 in0.0 mm
04:00 PM 57.2°F14.0°C 49.0°F9.4°C 74% 3.0 mph S4.8 kmh S 9.0 mph14.5 kmh 30.44 in1030.8 mb 0.00 in0.0 mm 0.00 in0.0 mm 0.00 in0.0 mm
03:55 PM 57.3°F14.1°C 49.1°F9.5°C 74% 3.0 mph SSW4.8 kmh SSW 9.0 mph14.5 kmh 30.44 in1030.8 mb 0.00 in0.0 mm 0.00 in0.0 mm 0.00 in0.0 mm
03:50 PM 57.6°F14.2°C 49.0°F9.4°C 73% 6.0 mph S9.7 kmh S 9.0 mph14.5 kmh 30.44 in1030.8 mb 0.00 in0.0 mm 0.00 in0.0 mm 0.00 in0.0 mm
03:45 PM 57.9°F14.4°C 49.3°F9.6°C 73% 7.0 mph SSE11.3 kmh SSE 9.0 mph14.5 kmh 30.44 in1030.8 mb 0.00 in0.0 mm 0.00 in0.0 mm 0.00 in0.0 mm
03:40 PM 58.1°F14.5°C 49.5°F9.7°C 73% 5.0 mph S8.0 kmh S 11.0 mph17.7 kmh 30.44 in1030.8 mb 0.00 in0.0 mm 0.00 in0.0 mm 0.00 in0.0 mm
03:35 PM 58.2°F14.6°C 49.6°F9.8°C 73% 5.0 mph SSE8.0 kmh SSE 11.0 mph17.7 kmh 30.44 in1030.8 mb 0.00 in0.0 mm 0.00 in0.0 mm 0.00 in0.0 mm
03:30 PM 58.1°F14.5°C 49.5°F9.7°C 73% 2.0 mph S3.2 kmh S 11.0 mph17.7 kmh 30.44 in1030.8 mb 0.00 in0.0 mm 0.00 in0.0 mm 0.00 in0.0 mm
03:25 PM 58.0°F14.4°C 49.4°F9.7°C 73% 2.0 mph SSE3.2 kmh SSE 11.0 mph17.7 kmh 30.43 in1030.5 mb 0.00 in0.0 mm 0.00 in0.0 mm 0.00 in0.0 mm
03:20 PM 58.1°F14.5°C 49.5°F9.7°C 73% 7.0 mph S11.3 kmh S 12.0 mph19.3 kmh 30.44 in1030.8 mb 0.00 in0.0 mm 0.00 in0.0 mm 0.00 in0.0 mm
03:15 PM 58.1°F14.5°C 49.5°F9.7°C 73% 4.0 mph SE6.4 kmh SE 12.0 mph19.3 kmh 30.44 in1030.8 mb 0.00 in0.0 mm 0.00 in0.0 mm 0.00 in0.0 mm
03:10 PM 58.2°F14.6°C 49.2°F9.6°C 72% 4.0 mph SSE6.4 kmh SSE 12.0 mph19.3 kmh 30.43 in1030.5 mb 0.00 in0.0 mm 0.00 in0.0 mm 0.00 in0.0 mm
03:05 PM 58.2°F14.6°C 49.6°F9.8°C 73% 5.0 mph S8.0 kmh S 12.0 mph19.3 kmh 30.43 in1030.5 mb 0.00 in0.0 mm 0.00 in0.0 mm 0.00 in0.0 mm
03:00 PM 58.2°F14.6°C 49.6°F9.8°C 73% 11.0 mph SE17.7 kmh SE 11.0 mph17.7 kmh 30.43 in1030.5 mb 0.00 in0.0 mm 0.00 in0.0 mm 0.00 in0.0 mm
02:55 PM 58.2°F14.6°C 49.6°F9.8°C 73% 7.0 mph SE11.3 kmh SE 11.0 mph17.7 kmh 30.43 in1030.5 mb 0.00 in0.0 mm 0.00 in0.0 mm 0.00 in0.0 mm
02:50 PM 58.2°F14.6°C 49.6°F9.8°C 73% 4.0 mph SSW6.4 kmh SSW 11.0 mph17.7 kmh 30.43 in1030.5 mb 0.00 in0.0 mm 0.00 in0.0 mm 0.00 in0.0 mm
02:45 PM 58.2°F14.6°C 49.2°F9.6°C 72% 8.0 mph S12.9 kmh S 10.0 mph16.1 kmh 30.43 in1030.5 mb 0.00 in0.0 mm 0.00 in0.0 mm 0.00 in0.0 mm
02:40 PM 58.1°F14.5°C 49.5°F9.7°C 73% 4.0 mph S6.4 kmh S 10.0 mph16.1 kmh 30.43 in1030.5 mb 0.00 in0.0 mm 0.00 in0.0 mm 0.00 in0.0 mm
02:35 PM 57.9°F14.4°C 49.7°F9.8°C 74% 6.0 mph SSE9.7 kmh SSE 12.0 mph19.3 kmh 30.43 in1030.5 mb 0.00 in0.0 mm 0.00 in0.0 mm 0.00 in0.0 mm
02:30 PM 57.8°F14.3°C 49.6°F9.8°C 74% 6.0 mph SE9.7 kmh SE 12.0 mph19.3 kmh 30.43 in1030.5 mb 0.00 in0.0 mm 0.00 in0.0 mm 0.00 in0.0 mm
02:25 PM 57.7°F14.3°C 49.8°F9.9°C 75% 6.0 mph S9.7 kmh S 12.0 mph19.3 kmh 30.43 in1030.5 mb 0.00 in0.0 mm 0.00 in0.0 mm 0.00 in0.0 mm
02:20 PM 57.6°F14.2°C 49.4°F9.7°C 74% 5.0 mph SSE8.0 kmh SSE 12.0 mph19.3 kmh 30.43 in1030.5 mb 0.00 in0.0 mm 0.00 in0.0 mm 0.00 in0.0 mm
02:15 PM 57.7°F14.3°C 49.8°F9.9°C 75% 7.0 mph SE11.3 kmh SE 11.0 mph17.7 kmh 30.43 in1030.5 mb 0.00 in0.0 mm 0.00 in0.0 mm 0.00 in0.0 mm
02:10 PM 57.5°F14.2°C 49.6°F9.8°C 75% 6.0 mph ESE9.7 kmh ESE 11.0 mph17.7 kmh 30.43 in1030.5 mb 0.00 in0.0 mm 0.00 in0.0 mm 0.00 in0.0 mm
02:05 PM 57.4°F14.1°C 49.2°F9.6°C 74% 6.0 mph SE9.7 kmh SE 11.0 mph17.7 kmh 30.43 in1030.5 mb 0.00 in0.0 mm 0.00 in0.0 mm 0.00 in0.0 mm
02:00 PM 57.4°F14.1°C 49.5°F9.7°C 75% 5.0 mph S8.0 kmh S 11.0 mph17.7 kmh 30.43 in1030.5 mb 0.00 in0.0 mm 0.00 in0.0 mm 0.00 in0.0 mm
01:55 PM 57.3°F14.1°C 49.4°F9.7°C 75% 5.0 mph SE8.0 kmh SE 11.0 mph17.7 kmh 30.43 in1030.5 mb 0.00 in0.0 mm 0.00 in0.0 mm 0.00 in0.0 mm
01:50 PM 57.2°F14.0°C 49.3°F9.6°C 75% 5.0 mph SSE8.0 kmh SSE 9.0 mph14.5 kmh 30.43 in1030.5 mb 0.00 in0.0 mm 0.00 in0.0 mm 0.00 in0.0 mm
01:45 PM 57.1°F13.9°C 49.6°F9.8°C 76% 4.0 mph S6.4 kmh S 9.0 mph14.5 kmh 30.43 in1030.5 mb 0.00 in0.0 mm 0.00 in0.0 mm 0.00 in0.0 mm
01:40 PM 56.9°F13.8°C 49.8°F9.9°C 77% 8.0 mph S12.9 kmh S 12.0 mph19.3 kmh 30.43 in1030.5 mb 0.00 in0.0 mm 0.00 in0.0 mm 0.00 in0.0 mm
01:35 PM 56.7°F13.7°C 49.2°F9.6°C 76% 5.0 mph S8.0 kmh S 12.0 mph19.3 kmh 30.43 in1030.5 mb 0.00 in0.0 mm 0.00 in0.0 mm 0.00 in0.0 mm
01:30 PM 56.6°F13.7°C 49.1°F9.5°C 76% 5.0 mph SE8.0 kmh SE 13.0 mph20.9 kmh 30.43 in1030.5 mb 0.00 in0.0 mm 0.00 in0.0 mm 0.00 in0.0 mm
01:25 PM 56.6°F13.7°C 49.5°F9.7°C 77% 11.0 mph SE17.7 kmh SE 13.0 mph20.9 kmh 30.44 in1030.8 mb 0.00 in0.0 mm 0.00 in0.0 mm 0.00 in0.0 mm
01:20 PM 56.4°F13.6°C 49.3°F9.6°C 77% 4.0 mph SSW6.4 kmh SSW 13.0 mph20.9 kmh 30.43 in1030.5 mb 0.00 in0.0 mm 0.00 in0.0 mm 0.00 in0.0 mm
01:15 PM 56.0°F13.3°C 49.2°F9.6°C 78% 2.0 mph SSE3.2 kmh SSE 13.0 mph20.9 kmh 30.44 in1030.8 mb 0.00 in0.0 mm 0.00 in0.0 mm 0.00 in0.0 mm
01:10 PM 55.8°F13.2°C 49.4°F9.7°C 79% 1.0 mph S1.6 kmh S 12.0 mph19.3 kmh 30.43 in1030.5 mb 0.00 in0.0 mm 0.00 in0.0 mm 0.00 in0.0 mm
01:05 PM 55.5°F13.1°C 49.1°F9.5°C 79% 4.0 mph SE6.4 kmh SE 12.0 mph19.3 kmh 30.44 in1030.8 mb 0.00 in0.0 mm 0.00 in0.0 mm 0.00 in0.0 mm
01:00 PM 55.3°F12.9°C 48.9°F9.4°C 79% 10.0 mph S16.1 kmh S 12.0 mph19.3 kmh 30.44 in1030.8 mb 0.00 in0.0 mm 0.00 in0.0 mm 0.00 in0.0 mm
12:55 PM 55.1°F12.8°C 49.0°F9.4°C 80% 9.0 mph S14.5 kmh S 10.0 mph16.1 kmh 30.44 in1030.8 mb 0.00 in0.0 mm 0.00 in0.0 mm 0.00 in0.0 mm
12:50 PM 54.7°F12.6°C 49.0°F9.4°C 81% 5.0 mph S8.0 kmh S 10.0 mph16.1 kmh 30.44 in1030.8 mb 0.00 in0.0 mm 0.00 in0.0 mm 0.00 in0.0 mm
12:45 PM 54.4°F12.4°C 48.7°F9.3°C 81% 7.0 mph S11.3 kmh S 11.0 mph17.7 kmh 30.45 in1031.2 mb 0.00 in0.0 mm 0.00 in0.0 mm 0.00 in0.0 mm
12:40 PM 54.0°F12.2°C 48.3°F9.1°C 81% 10.0 mph SE16.1 kmh SE 11.0 mph17.7 kmh 30.45 in1031.2 mb 0.00 in0.0 mm 0.00 in0.0 mm 0.00 in0.0 mm
12:35 PM 53.9°F12.2°C 48.2°F9.0°C 81% 8.0 mph SE12.9 kmh SE 11.0 mph17.7 kmh 30.45 in1031.2 mb 0.00 in0.0 mm 0.00 in0.0 mm 0.00 in0.0 mm
12:30 PM 53.7°F12.1°C 48.7°F9.3°C 83% 5.0 mph S8.0 kmh S 11.0 mph17.7 kmh 30.45 in1031.2 mb 0.00 in0.0 mm 0.00 in0.0 mm 0.00 in0.0 mm
12:25 PM 53.5°F11.9°C 48.1°F8.9°C 82% 5.0 mph SSE8.0 kmh SSE 11.0 mph17.7 kmh 30.45 in1031.2 mb 0.00 in0.0 mm 0.00 in0.0 mm 0.00 in0.0 mm
12:20 PM 53.4°F11.9°C 47.7°F8.7°C 81% 9.0 mph SE14.5 kmh SE 11.0 mph17.7 kmh 30.45 in1031.2 mb 0.00 in0.0 mm 0.00 in0.0 mm 0.00 in0.0 mm
12:15 PM 53.6°F12.0°C 48.2°F9.0°C 82% 8.0 mph SE12.9 kmh SE 11.0 mph17.7 kmh 30.45 in1031.2 mb 0.00 in0.0 mm 0.00 in0.0 mm 0.00 in0.0 mm
12:10 PM 53.5°F11.9°C 48.1°F8.9°C 82% 7.0 mph SE11.3 kmh SE 11.0 mph17.7 kmh 30.46 in1031.5 mb 0.00 in0.0 mm 0.00 in0.0 mm 0.00 in0.0 mm
12:05 PM 53.5°F11.9°C 48.1°F8.9°C 82% 8.0 mph SE12.9 kmh SE 11.0 mph17.7 kmh 30.46 in1031.5 mb 0.00 in0.0 mm 0.00 in0.0 mm 0.00 in0.0 mm
12:00 PM 53.5°F11.9°C 48.5°F9.2°C 83% 6.0 mph SE9.7 kmh SE 11.0 mph17.7 kmh 30.46 in1031.5 mb 0.00 in0.0 mm 0.00 in0.0 mm 0.00 in0.0 mm
11:55 AM 53.4°F11.9°C 48.7°F9.3°C 84% 1.0 mph S1.6 kmh S 8.0 mph12.9 kmh 30.46 in1031.5 mb 0.00 in0.0 mm 0.00 in0.0 mm 0.00 in0.0 mm
11:50 AM 53.0°F11.7°C 48.3°F9.1°C 84% 1.0 mph SSE1.6 kmh SSE 10.0 mph16.1 kmh 30.47 in1031.8 mb 0.00 in0.0 mm 0.00 in0.0 mm 0.00 in0.0 mm
11:45 AM 52.7°F11.5°C 48.0°F8.9°C 84% 5.0 mph SE8.0 kmh SE 10.0 mph16.1 kmh 30.47 in1031.8 mb 0.00 in0.0 mm 0.00 in0.0 mm 0.00 in0.0 mm
11:40 AM 52.5°F11.4°C 48.1°F8.9°C 85% 2.0 mph S3.2 kmh S 10.0 mph16.1 kmh 30.47 in1031.8 mb 0.00 in0.0 mm 0.00 in0.0 mm 0.00 in0.0 mm
11:35 AM 52.2°F11.2°C 48.1°F8.9°C 86% 6.0 mph SSE9.7 kmh SSE 10.0 mph16.1 kmh 30.47 in1031.8 mb 0.00 in0.0 mm 0.00 in0.0 mm 0.00 in0.0 mm
11:30 AM 51.6°F10.9°C 48.2°F9.0°C 88% 5.0 mph SSE8.0 kmh SSE 10.0 mph16.1 kmh 30.47 in1031.8 mb 0.00 in0.0 mm 0.00 in0.0 mm 0.00 in0.0 mm
11:25 AM 51.1°F10.6°C 47.7°F8.7°C 88% 4.0 mph SSE6.4 kmh SSE 10.0 mph16.1 kmh 30.47 in1031.8 mb 0.00 in0.0 mm 0.00 in0.0 mm 0.00 in0.0 mm
11:20 AM 50.7°F10.4°C 47.9°F8.8°C 90% 2.0 mph S3.2 kmh S 10.0 mph16.1 kmh 30.47 in1031.8 mb 0.00 in0.0 mm 0.00 in0.0 mm 0.00 in0.0 mm
11:15 AM 50.3°F10.2°C 47.8°F8.8°C 91% 7.0 mph S11.3 kmh S 9.0 mph14.5 kmh 30.47 in1031.8 mb 0.00 in0.0 mm 0.00 in0.0 mm 0.00 in0.0 mm
11:10 AM 50.0°F10.0°C 48.1°F8.9°C 93% 6.0 mph S9.7 kmh S 8.0 mph12.9 kmh 30.47 in1031.8 mb 0.00 in0.0 mm 0.00 in0.0 mm 0.00 in0.0 mm
11:05 AM 49.5°F9.7°C 47.6°F8.7°C 93% 4.0 mph SE6.4 kmh SE 8.0 mph12.9 kmh 30.47 in1031.8 mb 0.00 in0.0 mm 0.00 in0.0 mm 0.00 in0.0 mm
11:00 AM 49.1°F9.5°C 47.4°F8.6°C 94% 6.0 mph SSE9.7 kmh SSE 7.0 mph11.3 kmh 30.47 in1031.8 mb 0.00 in0.0 mm 0.00 in0.0 mm 0.00 in0.0 mm
10:55 AM 48.7°F9.3°C 47.3°F8.5°C 95% Calm Calm 10.0 mph16.1 kmh 30.47 in1031.8 mb 0.00 in0.0 mm 0.00 in0.0 mm 0.00 in0.0 mm
10:50 AM 48.2°F9.0°C 46.8°F8.2°C 95% 4.0 mph S6.4 kmh S 10.0 mph16.1 kmh 30.47 in1031.8 mb 0.00 in0.0 mm 0.00 in0.0 mm 0.00 in0.0 mm
10:45 AM 47.9°F8.8°C 46.5°F8.1°C 95% 5.0 mph S8.0 kmh S 10.0 mph16.1 kmh 30.47 in1031.8 mb 0.00 in0.0 mm 0.00 in0.0 mm 0.00 in0.0 mm
10:40 AM 47.6°F8.7°C 46.2°F7.9°C 95% 6.0 mph SE9.7 kmh SE 10.0 mph16.1 kmh 30.47 in1031.8 mb 0.00 in0.0 mm 0.00 in0.0 mm 0.00 in0.0 mm
10:35 AM 47.4°F8.6°C 46.0°F7.8°C 95% 4.0 mph SSE6.4 kmh SSE 9.0 mph14.5 kmh 30.48 in1032.2 mb 0.00 in0.0 mm 0.00 in0.0 mm 0.00 in0.0 mm
10:30 AM 47.0°F8.3°C 45.6°F7.6°C 95% 4.0 mph SSE6.4 kmh SSE 9.0 mph14.5 kmh 30.48 in1032.2 mb 0.00 in0.0 mm 0.00 in0.0 mm 0.00 in0.0 mm
10:25 AM 46.8°F8.2°C 45.4°F7.4°C 95% 4.0 mph S6.4 kmh S 9.0 mph14.5 kmh 30.48 in1032.2 mb 0.00 in0.0 mm 0.00 in0.0 mm 0.00 in0.0 mm
10:20 AM 46.5°F8.1°C 45.1°F7.3°C 95% 5.0 mph S8.0 kmh S 8.0 mph12.9 kmh 30.48 in1032.2 mb 0.00 in0.0 mm 0.00 in0.0 mm 0.00 in0.0 mm
10:15 AM 46.2°F7.9°C 44.8°F7.1°C 95% 5.0 mph SE8.0 kmh SE 7.0 mph11.3 kmh 30.48 in1032.2 mb 0.00 in0.0 mm 0.00 in0.0 mm 0.00 in0.0 mm
10:10 AM 45.9°F7.7°C 44.5°F6.9°C 95% 1.0 mph SE1.6 kmh SE 6.0 mph9.7 kmh 30.48 in1032.2 mb 0.00 in0.0 mm 0.00 in0.0 mm 0.00 in0.0 mm
10:05 AM 45.6°F7.6°C 44.3°F6.8°C 95% 2.0 mph SE3.2 kmh SE 6.0 mph9.7 kmh 30.48 in1032.2 mb 0.00 in0.0 mm 0.00 in0.0 mm 0.00 in0.0 mm
10:00 AM 45.3°F7.4°C 44.0°F6.7°C 95% 4.0 mph SE6.4 kmh SE 9.0 mph14.5 kmh 30.48 in1032.2 mb 0.00 in0.0 mm 0.00 in0.0 mm 0.00 in0.0 mm
09:55 AM 45.1°F7.3°C 43.8°F6.6°C 95% 6.0 mph SE9.7 kmh SE 9.0 mph14.5 kmh 30.48 in1032.2 mb 0.00 in0.0 mm 0.00 in0.0 mm 0.00 in0.0 mm
09:50 AM 44.9°F7.2°C 43.6°F6.4°C 95% 1.0 mph S1.6 kmh S 9.0 mph14.5 kmh 30.48 in1032.2 mb 0.00 in0.0 mm 0.00 in0.0 mm 0.00 in0.0 mm
09:45 AM 44.8°F7.1°C 43.5°F6.4°C 95% Calm Calm 9.0 mph14.5 kmh 30.48 in1032.2 mb 0.00 in0.0 mm 0.00 in0.0 mm 0.00 in0.0 mm
09:40 AM 44.6°F7.0°C 43.3°F6.3°C 95% Calm Calm 8.0 mph12.9 kmh 30.48 in1032.2 mb 0.00 in0.0 mm 0.00 in0.0 mm 0.00 in0.0 mm
09:35 AM 44.5°F6.9°C 43.2°F6.2°C 95% 2.0 mph SSE3.2 kmh SSE 8.0 mph12.9 kmh 30.48 in1032.2 mb 0.00 in0.0 mm 0.00 in0.0 mm 0.00 in0.0 mm
09:30 AM 44.3°F6.8°C 43.0°F6.1°C 95% 1.0 mph SE1.6 kmh SE 8.0 mph12.9 kmh 30.48 in1032.2 mb 0.00 in0.0 mm 0.00 in0.0 mm 0.00 in0.0 mm
09:25 AM 44.2°F6.8°C 42.9°F6.1°C 95% 2.0 mph S3.2 kmh S 9.0 mph14.5 kmh 30.48 in1032.2 mb 0.00 in0.0 mm 0.00 in0.0 mm 0.00 in0.0 mm
09:20 AM 44.1°F6.7°C 42.8°F6.0°C 95% Calm Calm 9.0 mph14.5 kmh 30.47 in1031.8 mb 0.00 in0.0 mm 0.00 in0.0 mm 0.00 in0.0 mm
09:15 AM 44.0°F6.7°C 42.7°F5.9°C 95% 2.0 mph SSE3.2 kmh SSE 9.0 mph14.5 kmh 30.47 in1031.8 mb 0.00 in0.0 mm 0.00 in0.0 mm 0.00 in0.0 mm
09:10 AM 44.0°F6.7°C 42.7°F5.9°C 95% 2.0 mph SE3.2 kmh SE 9.0 mph14.5 kmh 30.47 in1031.8 mb 0.00 in0.0 mm 0.00 in0.0 mm 0.00 in0.0 mm
09:05 AM 43.9°F6.6°C 42.6°F5.9°C 95% 5.0 mph SE8.0 kmh SE 6.0 mph9.7 kmh 30.47 in1031.8 mb 0.00 in0.0 mm 0.00 in0.0 mm 0.00 in0.0 mm
09:00 AM 43.7°F6.5°C 42.4°F5.8°C 95% 2.0 mph S3.2 kmh S 7.0 mph11.3 kmh 30.47 in1031.8 mb 0.00 in0.0 mm 0.00 in0.0 mm 0.00 in0.0 mm
08:55 AM 43.7°F6.5°C 42.4°F5.8°C 95% Calm Calm 7.0 mph11.3 kmh 30.47 in1031.8 mb 0.00 in0.0 mm 0.00 in0.0 mm 0.00 in0.0 mm
08:50 AM 43.6°F6.4°C 42.3°F5.7°C 95% 5.0 mph S8.0 kmh S 7.0 mph11.3 kmh 30.47 in1031.8 mb 0.00 in0.0 mm 0.00 in0.0 mm 0.00 in0.0 mm
08:45 AM 43.5°F6.4°C 42.2°F5.7°C 95% Calm Calm 7.0 mph11.3 kmh 30.48 in1032.2 mb 0.00 in0.0 mm 0.00 in0.0 mm 0.00 in0.0 mm
08:40 AM 43.4°F6.3°C 42.1°F5.6°C 95% 2.0 mph SE3.2 kmh SE 3.0 mph4.8 kmh 30.48 in1032.2 mb 0.00 in0.0 mm 0.00 in0.0 mm 0.00 in0.0 mm
08:32 AM 43.2°F6.2°C 41.9°F5.5°C 95% 2.0 mph S3.2 kmh S 7.0 mph11.3 kmh 30.48 in1032.2 mb 0.00 in0.0 mm 0.00 in0.0 mm 0.00 in0.0 mm
08:27 AM 43.1°F6.2°C 41.5°F5.3°C 94% Calm Calm 8.0 mph12.9 kmh 30.48 in1032.2 mb 0.00 in0.0 mm 0.00 in0.0 mm 0.00 in0.0 mm
08:22 AM 43.0°F6.1°C 41.4°F5.2°C 94% 1.0 mph SSE1.6 kmh SSE 7.0 mph11.3 kmh 30.48 in1032.2 mb 0.00 in0.0 mm 0.00 in0.0 mm 0.00 in0.0 mm
08:17 AM 42.9°F6.1°C 41.3°F5.2°C 94% 4.0 mph SSE6.4 kmh SSE 9.0 mph14.5 kmh 30.48 in1032.2 mb 0.00 in0.0 mm 0.00 in0.0 mm 0.00 in0.0 mm
08:12 AM 42.9°F6.1°C 41.3°F5.2°C 94% 2.0 mph S3.2 kmh S 9.0 mph14.5 kmh 30.48 in1032.2 mb 0.00 in0.0 mm 0.00 in0.0 mm 0.00 in0.0 mm
08:07 AM 42.8°F6.0°C 41.2°F5.1°C 94% 6.0 mph S9.7 kmh S 12.0 mph19.3 kmh 30.48 in1032.2 mb 0.00 in0.0 mm 0.00 in0.0 mm 0.00 in0.0 mm
08:02 AM 42.8°F6.0°C 41.2°F5.1°C 94% 5.0 mph S8.0 kmh S 12.0 mph19.3 kmh 30.48 in1032.2 mb 0.00 in0.0 mm 0.00 in0.0 mm 0.00 in0.0 mm
07:57 AM 42.7°F5.9°C 41.1°F5.1°C 94% 4.0 mph SE6.4 kmh SE 12.0 mph19.3 kmh 30.48 in1032.2 mb 0.00 in0.0 mm 0.00 in0.0 mm 0.00 in0.0 mm
07:52 AM 42.6°F5.9°C 41.0°F5.0°C 94% 4.0 mph S6.4 kmh S 12.0 mph19.3 kmh 30.48 in1032.2 mb 0.00 in0.0 mm 0.00 in0.0 mm 0.00 in0.0 mm
07:47 AM 42.5°F5.8°C 40.9°F4.9°C 94% 2.0 mph SE3.2 kmh SE 8.0 mph12.9 kmh 30.48 in1032.2 mb 0.00 in0.0 mm 0.00 in0.0 mm 0.00 in0.0 mm
07:42 AM 42.4°F5.8°C 40.8°F4.9°C 94% 2.0 mph SE3.2 kmh SE 7.0 mph11.3 kmh 30.48 in1032.2 mb 0.00 in0.0 mm 0.00 in0.0 mm 0.00 in0.0 mm
07:37 AM 42.4°F5.8°C 40.8°F4.9°C 94% 4.0 mph S6.4 kmh S 8.0 mph12.9 kmh 30.48 in1032.2 mb 0.00 in0.0 mm 0.00 in0.0 mm 0.00 in0.0 mm
07:32 AM 42.3°F5.7°C 40.7°F4.8°C 94% 1.0 mph SSE1.6 kmh SSE 8.0 mph12.9 kmh 30.48 in1032.2 mb 0.00 in0.0 mm 0.00 in0.0 mm 0.00 in0.0 mm
07:27 AM 42.3°F5.7°C 40.7°F4.8°C 94% 1.0 mph SE1.6 kmh SE 12.0 mph19.3 kmh 30.48 in1032.2 mb 0.00 in0.0 mm 0.00 in0.0 mm 0.00 in0.0 mm
07:22 AM 42.3°F5.7°C 40.7°F4.8°C 94% 4.0 mph SSE6.4 kmh SSE 12.0 mph19.3 kmh 30.48 in1032.2 mb 0.00 in0.0 mm 0.00 in0.0 mm 0.00 in0.0 mm
07:17 AM 42.3°F5.7°C 40.7°F4.8°C 94% 5.0 mph SE8.0 kmh SE 12.0 mph19.3 kmh 30.48 in1032.2 mb 0.00 in0.0 mm 0.00 in0.0 mm 0.00 in0.0 mm
07:12 AM 42.2°F5.7°C 40.6°F4.8°C 94% 11.0 mph SE17.7 kmh SE 12.0 mph19.3 kmh 30.48 in1032.2 mb 0.00 in0.0 mm 0.00 in0.0 mm 0.00 in0.0 mm
07:07 AM 42.2°F5.7°C 40.6°F4.8°C 94% 1.0 mph SSE1.6 kmh SSE 10.0 mph16.1 kmh 30.48 in1032.2 mb 0.00 in0.0 mm 0.00 in0.0 mm 0.00 in0.0 mm
07:02 AM 42.1°F5.6°C 40.5°F4.7°C 94% 7.0 mph SE11.3 kmh SE 10.0 mph16.1 kmh 30.48 in1032.2 mb 0.00 in0.0 mm 0.00 in0.0 mm 0.00 in0.0 mm
06:57 AM 42.0°F5.6°C 40.4°F4.7°C 94% 1.0 mph SE1.6 kmh SE 10.0 mph16.1 kmh 30.48 in1032.2 mb 0.00 in0.0 mm 0.00 in0.0 mm 0.00 in0.0 mm
06:52 AM 41.9°F5.5°C 40.3°F4.6°C 94% 2.0 mph SE3.2 kmh SE 9.0 mph14.5 kmh 30.48 in1032.2 mb 0.00 in0.0 mm 0.00 in0.0 mm 0.00 in0.0 mm
06:47 AM 41.9°F5.5°C 40.3°F4.6°C 94% 2.0 mph SSE3.2 kmh SSE 9.0 mph14.5 kmh 30.48 in1032.2 mb 0.00 in0.0 mm 0.00 in0.0 mm 0.00 in0.0 mm
06:42 AM 41.8°F5.4°C 40.2°F4.6°C 94% 5.0 mph SE8.0 kmh SE 13.0 mph20.9 kmh 30.48 in1032.2 mb 0.00 in0.0 mm 0.00 in0.0 mm 0.00 in0.0 mm
06:37 AM 41.8°F5.4°C 39.9°F4.4°C 93% 6.0 mph SE9.7 kmh SE 13.0 mph20.9 kmh 30.48 in1032.2 mb 0.00 in0.0 mm 0.00 in0.0 mm 0.00 in0.0 mm
06:32 AM 41.7°F5.4°C 39.8°F4.3°C 93% 6.0 mph SE9.7 kmh SE 13.0 mph20.9 kmh 30.48 in1032.2 mb 0.00 in0.0 mm 0.00 in0.0 mm 0.00 in0.0 mm
06:27 AM 41.6°F5.3°C 39.7°F4.3°C 93% 6.0 mph SE9.7 kmh SE 13.0 mph20.9 kmh 30.48 in1032.2 mb 0.00 in0.0 mm 0.00 in0.0 mm 0.00 in0.0 mm
06:22 AM 41.5°F5.3°C 39.6°F4.2°C 93% 2.0 mph SE3.2 kmh SE 9.0 mph14.5 kmh 30.48 in1032.2 mb 0.00 in0.0 mm 0.00 in0.0 mm 0.00 in0.0 mm
06:17 AM 41.4°F5.2°C 39.5°F4.2°C 93% 5.0 mph SE8.0 kmh SE 11.0 mph17.7 kmh 30.48 in1032.2 mb 0.00 in0.0 mm 0.00 in0.0 mm 0.00 in0.0 mm
06:12 AM 41.4°F5.2°C 39.5°F4.2°C 93% 2.0 mph SE3.2 kmh SE 11.0 mph17.7 kmh 30.48 in1032.2 mb 0.00 in0.0 mm 0.00 in0.0 mm 0.00 in0.0 mm
06:07 AM 41.3°F5.2°C 39.4°F4.1°C 93% 6.0 mph SE9.7 kmh SE 11.0 mph17.7 kmh 30.48 in1032.2 mb 0.00 in0.0 mm 0.00 in0.0 mm 0.00 in0.0 mm
06:02 AM 41.3°F5.2°C 39.4°F4.1°C 93% 4.0 mph SE6.4 kmh SE 11.0 mph17.7 kmh 30.48 in1032.2 mb 0.00 in0.0 mm 0.00 in0.0 mm 0.00 in0.0 mm
05:57 AM 41.2°F5.1°C 39.3°F4.1°C 93% 6.0 mph SE9.7 kmh SE 9.0 mph14.5 kmh 30.48 in1032.2 mb 0.00 in0.0 mm 0.00 in0.0 mm 0.00 in0.0 mm
05:52 AM 41.1°F5.1°C 39.0°F3.9°C 92% 5.0 mph ESE8.0 kmh ESE 8.0 mph12.9 kmh 30.48 in1032.2 mb 0.00 in0.0 mm 0.00 in0.0 mm 0.00 in0.0 mm
05:47 AM 41.0°F5.0°C 38.9°F3.8°C 92% 2.0 mph SE3.2 kmh SE 8.0 mph12.9 kmh 30.48 in1032.2 mb 0.00 in0.0 mm 0.00 in0.0 mm 0.00 in0.0 mm
05:42 AM 41.0°F5.0°C 38.9°F3.8°C 92% 4.0 mph SE6.4 kmh SE 8.0 mph12.9 kmh 30.48 in1032.2 mb 0.00 in0.0 mm 0.00 in0.0 mm 0.00 in0.0 mm
05:37 AM 41.0°F5.0°C 38.9°F3.8°C 92% 1.0 mph SE1.6 kmh SE 7.0 mph11.3 kmh 30.48 in1032.2 mb 0.00 in0.0 mm 0.00 in0.0 mm 0.00 in0.0 mm
05:32 AM 40.9°F4.9°C 38.5°F3.6°C 91% 6.0 mph S9.7 kmh S 8.0 mph12.9 kmh 30.48 in1032.2 mb 0.00 in0.0 mm 0.00 in0.0 mm 0.00 in0.0 mm
05:27 AM 41.0°F5.0°C 38.6°F3.7°C 91% Calm Calm 8.0 mph12.9 kmh 30.48 in1032.2 mb 0.00 in0.0 mm 0.00 in0.0 mm 0.00 in0.0 mm
05:22 AM 41.1°F5.1°C 38.7°F3.7°C 91% 2.0 mph SE3.2 kmh SE 8.0 mph12.9 kmh 30.48 in1032.2 mb 0.00 in0.0 mm 0.00 in0.0 mm 0.00 in0.0 mm
05:17 AM 41.2°F5.1°C 38.8°F3.8°C 91% 1.0 mph ESE1.6 kmh ESE 8.0 mph12.9 kmh 30.48 in1032.2 mb 0.00 in0.0 mm 0.00 in0.0 mm 0.00 in0.0 mm
05:12 AM 41.3°F5.2°C 38.9°F3.8°C 91% 5.0 mph SE8.0 kmh SE 7.0 mph11.3 kmh 30.48 in1032.2 mb 0.00 in0.0 mm 0.00 in0.0 mm 0.00 in0.0 mm
05:07 AM 41.4°F5.2°C 39.0°F3.9°C 91% 2.0 mph SE3.2 kmh SE 7.0 mph11.3 kmh 30.48 in1032.2 mb 0.00 in0.0 mm 0.00 in0.0 mm 0.00 in0.0 mm
05:02 AM 41.5°F5.3°C 39.1°F3.9°C 91% 6.0 mph SE9.7 kmh SE 9.0 mph14.5 kmh 30.48 in1032.2 mb 0.00 in0.0 mm 0.00 in0.0 mm 0.00 in0.0 mm
04:57 AM 41.7°F5.4°C 39.0°F3.9°C 90% 2.0 mph SE3.2 kmh SE 9.0 mph14.5 kmh 30.48 in1032.2 mb 0.00 in0.0 mm 0.00 in0.0 mm 0.00 in0.0 mm
04:52 AM 41.8°F5.4°C 39.1°F3.9°C 90% Calm Calm 9.0 mph14.5 kmh 30.48 in1032.2 mb 0.00 in0.0 mm 0.00 in0.0 mm 0.00 in0.0 mm
04:47 AM 41.8°F5.4°C 39.1°F3.9°C 90% 6.0 mph SE9.7 kmh SE 9.0 mph14.5 kmh 30.47 in1031.8 mb 0.00 in0.0 mm 0.00 in0.0 mm 0.00 in0.0 mm
04:42 AM 41.8°F5.4°C 39.1°F3.9°C 90% 1.0 mph ESE1.6 kmh ESE 8.0 mph12.9 kmh 30.47 in1031.8 mb 0.00 in0.0 mm 0.00 in0.0 mm 0.00 in0.0 mm
04:37 AM 41.9°F5.5°C 39.2°F4.0°C 90% 1.0 mph ESE1.6 kmh ESE 8.0 mph12.9 kmh 30.47 in1031.8 mb 0.00 in0.0 mm 0.00 in0.0 mm 0.00 in0.0 mm
04:32 AM 41.9°F5.5°C 39.2°F4.0°C 90% 2.0 mph SE3.2 kmh SE 8.0 mph12.9 kmh 30.47 in1031.8 mb 0.00 in0.0 mm 0.00 in0.0 mm 0.00 in0.0 mm
04:27 AM 42.0°F5.6°C 39.3°F4.1°C 90% 5.0 mph SE8.0 kmh SE 7.0 mph11.3 kmh 30.48 in1032.2 mb 0.00 in0.0 mm 0.00 in0.0 mm 0.00 in0.0 mm
04:22 AM 42.0°F5.6°C 39.3°F4.1°C 90% 2.0 mph SE3.2 kmh SE 6.0 mph9.7 kmh 30.48 in1032.2 mb 0.00 in0.0 mm 0.00 in0.0 mm 0.00 in0.0 mm
04:17 AM 42.0°F5.6°C 39.0°F3.9°C 89% Calm Calm 6.0 mph9.7 kmh 30.47 in1031.8 mb 0.00 in0.0 mm 0.00 in0.0 mm 0.00 in0.0 mm
04:12 AM 42.1°F5.6°C 39.1°F3.9°C 89% Calm Calm 4.0 mph6.4 kmh 30.47 in1031.8 mb 0.00 in0.0 mm 0.00 in0.0 mm 0.00 in0.0 mm
04:07 AM 42.2°F5.7°C 39.2°F4.0°C 89% 2.0 mph SE3.2 kmh SE 4.0 mph6.4 kmh 30.47 in1031.8 mb 0.00 in0.0 mm 0.00 in0.0 mm 0.00 in0.0 mm
04:02 AM 42.3°F5.7°C 39.3°F4.1°C 89% Calm Calm -- 30.47 in1031.8 mb 0.00 in0.0 mm 0.00 in0.0 mm 0.00 in0.0 mm
03:57 AM 42.4°F5.8°C 39.4°F4.1°C 89% Calm Calm 6.0 mph9.7 kmh 30.47 in1031.8 mb 0.00 in0.0 mm 0.00 in0.0 mm 0.00 in0.0 mm
03:52 AM 42.6°F5.9°C 39.6°F4.2°C 89% Calm Calm 2.0 mph3.2 kmh 30.47 in1031.8 mb 0.00 in0.0 mm 0.00 in0.0 mm 0.00 in0.0 mm
03:47 AM 42.7°F5.9°C 39.7°F4.3°C 89% Calm Calm -- 30.47 in1031.8 mb 0.00 in0.0 mm 0.00 in0.0 mm 0.00 in0.0 mm
03:42 AM 42.9°F6.1°C 39.9°F4.4°C 89% 2.0 mph SSE3.2 kmh SSE 7.0 mph11.3 kmh 30.47 in1031.8 mb 0.00 in0.0 mm 0.00 in0.0 mm 0.00 in0.0 mm
03:37 AM 43.0°F6.1°C 40.0°F4.4°C 89% Calm Calm 10.0 mph16.1 kmh 30.47 in1031.8 mb 0.00 in0.0 mm 0.00 in0.0 mm 0.00 in0.0 mm
03:32 AM 43.1°F6.2°C 40.1°F4.5°C 89% 1.0 mph SE1.6 kmh SE 10.0 mph16.1 kmh 30.47 in1031.8 mb 0.00 in0.0 mm 0.00 in0.0 mm 0.00 in0.0 mm
03:27 AM 43.3°F6.3°C 40.3°F4.6°C 89% 5.0 mph SE8.0 kmh SE 10.0 mph16.1 kmh 30.47 in1031.8 mb 0.00 in0.0 mm 0.00 in0.0 mm 0.00 in0.0 mm
03:22 AM 43.4°F6.3°C 40.4°F4.7°C 89% 4.0 mph SE6.4 kmh SE 10.0 mph16.1 kmh 30.47 in1031.8 mb 0.00 in0.0 mm 0.00 in0.0 mm 0.00 in0.0 mm
03:17 AM 43.4°F6.3°C 40.4°F4.7°C 89% 2.0 mph SE3.2 kmh SE 11.0 mph17.7 kmh 30.47 in1031.8 mb 0.00 in0.0 mm 0.00 in0.0 mm 0.00 in0.0 mm
03:12 AM 43.6°F6.4°C 40.6°F4.8°C 89% 5.0 mph ESE8.0 kmh ESE 11.0 mph17.7 kmh 30.47 in1031.8 mb 0.00 in0.0 mm 0.00 in0.0 mm 0.00 in0.0 mm
03:07 AM 43.7°F6.5°C 40.7°F4.8°C 89% 2.0 mph SE3.2 kmh SE 11.0 mph17.7 kmh 30.47 in1031.8 mb 0.00 in0.0 mm 0.00 in0.0 mm 0.00 in0.0 mm
03:02 AM 43.8°F6.6°C 40.8°F4.9°C 89% 5.0 mph SE8.0 kmh SE 11.0 mph17.7 kmh 30.47 in1031.8 mb 0.00 in0.0 mm 0.00 in0.0 mm 0.00 in0.0 mm
02:57 AM 44.0°F6.7°C 41.0°F5.0°C 89% 9.0 mph SSE14.5 kmh SSE 11.0 mph17.7 kmh 30.47 in1031.8 mb 0.00 in0.0 mm 0.00 in0.0 mm 0.00 in0.0 mm
02:52 AM 44.1°F6.7°C 41.1°F5.1°C 89% 4.0 mph SE6.4 kmh SE 11.0 mph17.7 kmh 30.47 in1031.8 mb 0.00 in0.0 mm 0.00 in0.0 mm 0.00 in0.0 mm
02:47 AM 44.2°F6.8°C 41.2°F5.1°C 89% 1.0 mph SE1.6 kmh SE 11.0 mph17.7 kmh 30.47 in1031.8 mb 0.00 in0.0 mm 0.00 in0.0 mm 0.00 in0.0 mm
02:42 AM 44.3°F6.8°C 41.3°F5.2°C 89% 2.0 mph SSE3.2 kmh SSE 9.0 mph14.5 kmh 30.47 in1031.8 mb 0.00 in0.0 mm 0.00 in0.0 mm 0.00 in0.0 mm
02:37 AM 44.5°F6.9°C 41.5°F5.3°C 89% 4.0 mph SE6.4 kmh SE 9.0 mph14.5 kmh 30.47 in1031.8 mb 0.00 in0.0 mm 0.00 in0.0 mm 0.00 in0.0 mm
02:32 AM 44.6°F7.0°C 41.6°F5.3°C 89% 1.0 mph SE1.6 kmh SE 11.0 mph17.7 kmh 30.47 in1031.8 mb 0.00 in0.0 mm 0.00 in0.0 mm 0.00 in0.0 mm
02:27 AM 44.7°F7.1°C 41.9°F5.5°C 90% 4.0 mph SE6.4 kmh SE 11.0 mph17.7 kmh 30.47 in1031.8 mb 0.00 in0.0 mm 0.00 in0.0 mm 0.00 in0.0 mm
02:22 AM 44.8°F7.1°C 42.0°F5.6°C 90% 6.0 mph SSE9.7 kmh SSE 12.0 mph19.3 kmh 30.47 in1031.8 mb 0.00 in0.0 mm 0.00 in0.0 mm 0.00 in0.0 mm
02:17 AM 44.9°F7.2°C 42.1°F5.6°C 90% 4.0 mph SE6.4 kmh SE 12.0 mph19.3 kmh 30.47 in1031.8 mb 0.00 in0.0 mm 0.00 in0.0 mm 0.00 in0.0 mm
02:12 AM 44.9°F7.2°C 42.1°F5.6°C 90% 4.0 mph SE6.4 kmh SE 12.0 mph19.3 kmh 30.47 in1031.8 mb 0.00 in0.0 mm 0.00 in0.0 mm 0.00 in0.0 mm
02:07 AM 45.0°F7.2°C 42.2°F5.7°C 90% 8.0 mph SE12.9 kmh SE 12.0 mph19.3 kmh 30.47 in1031.8 mb 0.00 in0.0 mm 0.00 in0.0 mm 0.00 in0.0 mm
02:02 AM 44.9°F7.2°C 42.1°F5.6°C 90% 7.0 mph SE11.3 kmh SE 11.0 mph17.7 kmh 30.47 in1031.8 mb 0.00 in0.0 mm 0.00 in0.0 mm 0.00 in0.0 mm
01:57 AM 45.0°F7.2°C 42.2°F5.7°C 90% 9.0 mph SE14.5 kmh SE 11.0 mph17.7 kmh 30.47 in1031.8 mb 0.00 in0.0 mm 0.00 in0.0 mm 0.00 in0.0 mm
01:52 AM 45.0°F7.2°C 42.2°F5.7°C 90% 8.0 mph SE12.9 kmh SE 11.0 mph17.7 kmh 30.48 in1032.2 mb 0.00 in0.0 mm 0.00 in0.0 mm 0.00 in0.0 mm
01:47 AM 45.0°F7.2°C 42.2°F5.7°C 90% 6.0 mph SE9.7 kmh SE 11.0 mph17.7 kmh 30.48 in1032.2 mb 0.00 in0.0 mm 0.00 in0.0 mm 0.00 in0.0 mm
01:42 AM 45.1°F7.3°C 42.3°F5.7°C 90% 4.0 mph SE6.4 kmh SE 9.0 mph14.5 kmh 30.48 in1032.2 mb 0.00 in0.0 mm 0.00 in0.0 mm 0.00 in0.0 mm
01:37 AM 45.2°F7.3°C 42.4°F5.8°C 90% 4.0 mph SE6.4 kmh SE 6.0 mph9.7 kmh 30.48 in1032.2 mb 0.00 in0.0 mm 0.00 in0.0 mm 0.00 in0.0 mm
01:32 AM 45.3°F7.4°C 42.5°F5.8°C 90% Calm Calm 9.0 mph14.5 kmh 30.48 in1032.2 mb 0.00 in0.0 mm 0.00 in0.0 mm 0.00 in0.0 mm
01:27 AM 45.4°F7.4°C 42.6°F5.9°C 90% 2.0 mph SE3.2 kmh SE 9.0 mph14.5 kmh 30.48 in1032.2 mb 0.00 in0.0 mm 0.00 in0.0 mm 0.00 in0.0 mm
01:22 AM 45.4°F7.4°C 42.6°F5.9°C 90% 6.0 mph SE9.7 kmh SE 10.0 mph16.1 kmh 30.48 in1032.2 mb 0.00 in0.0 mm 0.00 in0.0 mm 0.00 in0.0 mm
01:17 AM 45.4°F7.4°C 42.6°F5.9°C 90% 7.0 mph SE11.3 kmh SE 10.0 mph16.1 kmh 30.48 in1032.2 mb 0.00 in0.0 mm 0.00 in0.0 mm 0.00 in0.0 mm
01:12 AM 45.4°F7.4°C 42.6°F5.9°C 90% 2.0 mph SSE3.2 kmh SSE 10.0 mph16.1 kmh 30.48 in1032.2 mb 0.00 in0.0 mm 0.00 in0.0 mm 0.00 in0.0 mm
01:07 AM 45.3°F7.4°C 42.5°F5.8°C 90% 8.0 mph SE12.9 kmh SE 10.0 mph16.1 kmh 30.48 in1032.2 mb 0.00 in0.0 mm 0.00 in0.0 mm 0.00 in0.0 mm
01:02 AM 45.1°F7.3°C 42.3°F5.7°C 90% 4.0 mph SE6.4 kmh SE 9.0 mph14.5 kmh 30.48 in1032.2 mb 0.00 in0.0 mm 0.00 in0.0 mm 0.00 in0.0 mm
12:57 AM 45.1°F7.3°C 42.3°F5.7°C 90% 2.0 mph SE3.2 kmh SE 9.0 mph14.5 kmh 30.48 in1032.2 mb 0.00 in0.0 mm 0.00 in0.0 mm 0.00 in0.0 mm
12:52 AM 44.9°F7.2°C 42.1°F5.6°C 90% 4.0 mph SE6.4 kmh SE 8.0 mph12.9 kmh 30.48 in1032.2 mb 0.00 in0.0 mm 0.00 in0.0 mm 0.00 in0.0 mm
12:47 AM 44.9°F7.2°C 42.1°F5.6°C 90% 2.0 mph SE3.2 kmh SE 6.0 mph9.7 kmh 30.48 in1032.2 mb 0.00 in0.0 mm 0.00 in0.0 mm 0.00 in0.0 mm
12:42 AM 44.9°F7.2°C 41.9°F5.5°C 89% 1.0 mph SE1.6 kmh SE 4.0 mph6.4 kmh 30.49 in1032.5 mb 0.00 in0.0 mm 0.00 in0.0 mm 0.00 in0.0 mm
12:37 AM 44.9°F7.2°C 41.9°F5.5°C 89% 1.0 mph SE1.6 kmh SE 5.0 mph8.0 kmh 30.49 in1032.5 mb 0.00 in0.0 mm 0.00 in0.0 mm 0.00 in0.0 mm
12:32 AM 45.0°F7.2°C 42.0°F5.6°C 89% Calm Calm 2.0 mph3.2 kmh 30.49 in1032.5 mb 0.00 in0.0 mm 0.00 in0.0 mm 0.00 in0.0 mm
12:27 AM 45.2°F7.3°C 42.2°F5.7°C 89% Calm Calm -- 30.49 in1032.5 mb 0.00 in0.0 mm 0.00 in0.0 mm 0.00 in0.0 mm
12:22 AM 45.3°F7.4°C 42.3°F5.7°C 89% Calm Calm -- 30.49 in1032.5 mb 0.00 in0.0 mm 0.00 in0.0 mm 0.00 in0.0 mm
12:17 AM 45.4°F7.4°C 42.3°F5.7°C 89% 1.0 mph SE1.6 kmh SE 4.0 mph6.4 kmh 30.49 in1032.5 mb 0.00 in0.0 mm 0.00 in0.0 mm 0.00 in0.0 mm
12:12 AM 45.5°F7.5°C 42.4°F5.8°C 89% Calm Calm 2.0 mph3.2 kmh 30.49 in1032.5 mb 0.00 in0.0 mm 0.00 in0.0 mm 0.00 in0.0 mm
12:07 AM 45.6°F7.6°C 42.5°F5.8°C 89% Calm Calm -- 30.49 in1032.5 mb 0.00 in0.0 mm 0.00 in0.0 mm 0.00 in0.0 mm
12:02 AM 45.8°F7.7°C 42.5°F5.8°C 88% Calm Calm -- 30.49 in1032.5 mb 0.00 in0.0 mm 0.00 in0.0 mm 0.00 in0.0 mm